sensor_id;sensor_type;location;lat;lon;timestamp;P1;durP1;ratioP1;P2;durP2;ratioP2
46653;SDS011;38960;51.074;17.004;2023-09-07T00:00:03;16.80;;;15.35;;
46653;SDS011;38960;51.074;17.004;2023-09-07T00:02:37;16.25;;;14.35;;
46653;SDS011;38960;51.074;17.004;2023-09-07T00:05:04;21.75;;;19.80;;
46653;SDS011;38960;51.074;17.004;2023-09-07T00:07:31;22.42;;;20.42;;
46653;SDS011;38960;51.074;17.004;2023-09-07T00:09:57;21.40;;;19.40;;
46653;SDS011;38960;51.074;17.004;2023-09-07T00:12:22;21.02;;;19.42;;
46653;SDS011;38960;51.074;17.004;2023-09-07T00:14:47;23.90;;;21.90;;
46653;SDS011;38960;51.074;17.004;2023-09-07T00:17:13;19.90;;;18.42;;
46653;SDS011;38960;51.074;17.004;2023-09-07T00:19:38;20.15;;;18.45;;
46653;SDS011;38960;51.074;17.004;2023-09-07T00:22:04;18.27;;;16.88;;
46653;SDS011;38960;51.074;17.004;2023-09-07T00:24:30;20.15;;;18.35;;
46653;SDS011;38960;51.074;17.004;2023-09-07T00:26:57;19.95;;;18.35;;
46653;SDS011;38960;51.074;17.004;2023-09-07T00:29:22;19.17;;;17.40;;
46653;SDS011;38960;51.074;17.004;2023-09-07T00:31:48;21.40;;;19.50;;
46653;SDS011;38960;51.074;17.004;2023-09-07T00:34:14;21.02;;;19.27;;
46653;SDS011;38960;51.074;17.004;2023-09-07T00:36:39;21.98;;;20.13;;
46653;SDS011;38960;51.074;17.004;2023-09-07T00:39:05;20.17;;;18.50;;
46653;SDS011;38960;51.074;17.004;2023-09-07T00:41:30;21.25;;;19.58;;
46653;SDS011;38960;51.074;17.004;2023-09-07T00:43:56;22.08;;;20.30;;
46653;SDS011;38960;51.074;17.004;2023-09-07T00:46:21;21.50;;;19.60;;
46653;SDS011;38960;51.074;17.004;2023-09-07T00:48:48;22.35;;;20.08;;
46653;SDS011;38960;51.074;17.004;2023-09-07T00:51:14;21.48;;;19.58;;
46653;SDS011;38960;51.074;17.004;2023-09-07T00:53:39;21.58;;;19.52;;
46653;SDS011;38960;51.074;17.004;2023-09-07T00:56:05;20.27;;;18.58;;
46653;SDS011;38960;51.074;17.004;2023-09-07T00:58:32;20.25;;;18.45;;
46653;SDS011;38960;51.074;17.004;2023-09-07T01:00:59;20.40;;;18.70;;
46653;SDS011;38960;51.074;17.004;2023-09-07T01:03:24;21.55;;;19.35;;
46653;SDS011;38960;51.074;17.004;2023-09-07T01:05:56;20.60;;;18.67;;
46653;SDS011;38960;51.074;17.004;2023-09-07T01:08:25;22.38;;;20.02;;
46653;SDS011;38960;51.074;17.004;2023-09-07T01:10:52;20.58;;;18.60;;
46653;SDS011;38960;51.074;17.004;2023-09-07T01:13:19;20.65;;;18.95;;
46653;SDS011;38960;51.074;17.004;2023-09-07T01:15:45;21.88;;;19.10;;
46653;SDS011;38960;51.074;17.004;2023-09-07T01:18:12;21.30;;;19.70;;
46653;SDS011;38960;51.074;17.004;2023-09-07T01:20:39;21.77;;;20.08;;
46653;SDS011;38960;51.074;17.004;2023-09-07T01:23:06;21.63;;;19.92;;
46653;SDS011;38960;51.074;17.004;2023-09-07T01:25:32;21.52;;;19.70;;
46653;SDS011;38960;51.074;17.004;2023-09-07T01:27:58;21.00;;;19.23;;
46653;SDS011;38960;51.074;17.004;2023-09-07T01:30:25;19.98;;;18.27;;
46653;SDS011;38960;51.074;17.004;2023-09-07T01:32:52;21.50;;;19.50;;
46653;SDS011;38960;51.074;17.004;2023-09-07T01:35:18;23.02;;;21.23;;
46653;SDS011;38960;51.074;17.004;2023-09-07T01:37:47;21.40;;;19.25;;
46653;SDS011;38960;51.074;17.004;2023-09-07T01:40:13;22.67;;;20.77;;
46653;SDS011;38960;51.074;17.004;2023-09-07T01:42:38;22.83;;;20.92;;
46653;SDS011;38960;51.074;17.004;2023-09-07T01:45:04;23.00;;;21.05;;
46653;SDS011;38960;51.074;17.004;2023-09-07T01:47:30;22.05;;;20.27;;
46653;SDS011;38960;51.074;17.004;2023-09-07T01:49:56;23.40;;;21.58;;
46653;SDS011;38960;51.074;17.004;2023-09-07T01:52:22;21.60;;;19.85;;
46653;SDS011;38960;51.074;17.004;2023-09-07T01:54:47;23.42;;;21.30;;
46653;SDS011;38960;51.074;17.004;2023-09-07T01:57:13;23.10;;;21.25;;
46653;SDS011;38960;51.074;17.004;2023-09-07T01:59:38;23.92;;;21.85;;
46653;SDS011;38960;51.074;17.004;2023-09-07T02:02:04;24.05;;;22.15;;
46653;SDS011;38960;51.074;17.004;2023-09-07T02:04:30;24.58;;;22.45;;
46653;SDS011;38960;51.074;17.004;2023-09-07T02:06:55;11.82;;;6.75;;
46653;SDS011;38960;51.074;17.004;2023-09-07T02:09:21;16.92;;;8.30;;
46653;SDS011;38960;51.074;17.004;2023-09-07T02:11:46;7.78;;;5.80;;
46653;SDS011;38960;51.074;17.004;2023-09-07T02:14:12;14.45;;;7.05;;
46653;SDS011;38960;51.074;17.004;2023-09-07T02:16:38;10.23;;;6.85;;
46653;SDS011;38960;51.074;17.004;2023-09-07T02:19:04;9.73;;;6.68;;
46653;SDS011;38960;51.074;17.004;2023-09-07T02:21:31;9.27;;;6.03;;
46653;SDS011;38960;51.074;17.004;2023-09-07T02:23:57;8.80;;;6.32;;
46653;SDS011;38960;51.074;17.004;2023-09-07T02:26:23;11.27;;;6.53;;
46653;SDS011;38960;51.074;17.004;2023-09-07T02:28:48;9.70;;;6.15;;
46653;SDS011;38960;51.074;17.004;2023-09-07T02:31:14;10.75;;;6.55;;
46653;SDS011;38960;51.074;17.004;2023-09-07T02:33:39;9.80;;;6.78;;
46653;SDS011;38960;51.074;17.004;2023-09-07T02:36:05;14.43;;;6.43;;
46653;SDS011;38960;51.074;17.004;2023-09-07T02:38:31;12.73;;;6.40;;
46653;SDS011;38960;51.074;17.004;2023-09-07T02:40:58;10.88;;;6.40;;
46653;SDS011;38960;51.074;17.004;2023-09-07T02:43:24;15.55;;;7.10;;
46653;SDS011;38960;51.074;17.004;2023-09-07T02:45:50;9.20;;;7.45;;
46653;SDS011;38960;51.074;17.004;2023-09-07T02:48:16;13.05;;;9.30;;
46653;SDS011;38960;51.074;17.004;2023-09-07T02:50:42;19.63;;;13.93;;
46653;SDS011;38960;51.074;17.004;2023-09-07T02:53:10;17.25;;;13.85;;
46653;SDS011;38960;51.074;17.004;2023-09-07T02:55:38;14.27;;;8.88;;
46653;SDS011;38960;51.074;17.004;2023-09-07T02:58:04;12.65;;;10.60;;
46653;SDS011;38960;51.074;17.004;2023-09-07T03:00:30;16.10;;;14.65;;
46653;SDS011;38960;51.074;17.004;2023-09-07T03:02:56;9.98;;;7.60;;
46653;SDS011;38960;51.074;17.004;2023-09-07T03:05:21;13.30;;;6.97;;
46653;SDS011;38960;51.074;17.004;2023-09-07T03:07:47;14.07;;;8.75;;
46653;SDS011;38960;51.074;17.004;2023-09-07T03:10:14;13.63;;;11.02;;
46653;SDS011;38960;51.074;17.004;2023-09-07T03:12:42;15.18;;;13.40;;
46653;SDS011;38960;51.074;17.004;2023-09-07T03:15:08;15.90;;;8.27;;
46653;SDS011;38960;51.074;17.004;2023-09-07T03:17:33;9.07;;;6.53;;
46653;SDS011;38960;51.074;17.004;2023-09-07T03:20:00;18.80;;;12.80;;
46653;SDS011;38960;51.074;17.004;2023-09-07T03:22:26;15.82;;;14.25;;
46653;SDS011;38960;51.074;17.004;2023-09-07T03:24:53;11.98;;;7.65;;
46653;SDS011;38960;51.074;17.004;2023-09-07T03:27:19;12.40;;;8.30;;
46653;SDS011;38960;51.074;17.004;2023-09-07T03:29:46;13.50;;;7.85;;
46653;SDS011;38960;51.074;17.004;2023-09-07T03:32:17;17.55;;;8.05;;
46653;SDS011;38960;51.074;17.004;2023-09-07T03:34:43;11.75;;;7.93;;
46653;SDS011;38960;51.074;17.004;2023-09-07T03:37:08;15.35;;;8.20;;
46653;SDS011;38960;51.074;17.004;2023-09-07T03:39:36;14.63;;;7.97;;
46653;SDS011;38960;51.074;17.004;2023-09-07T03:42:02;12.00;;;7.53;;
46653;SDS011;38960;51.074;17.004;2023-09-07T03:44:28;12.50;;;7.32;;
46653;SDS011;38960;51.074;17.004;2023-09-07T03:46:53;10.15;;;7.53;;
46653;SDS011;38960;51.074;17.004;2023-09-07T03:49:19;11.73;;;8.60;;
46653;SDS011;38960;51.074;17.004;2023-09-07T03:51:45;14.27;;;8.20;;
46653;SDS011;38960;51.074;17.004;2023-09-07T03:54:10;13.73;;;7.72;;
46653;SDS011;38960;51.074;17.004;2023-09-07T03:56:36;10.82;;;8.10;;
46653;SDS011;38960;51.074;17.004;2023-09-07T03:59:01;20.38;;;9.15;;
46653;SDS011;38960;51.074;17.004;2023-09-07T04:01:28;19.23;;;10.38;;
46653;SDS011;38960;51.074;17.004;2023-09-07T04:03:53;14.80;;;10.13;;
46653;SDS011;38960;51.074;17.004;2023-09-07T04:06:19;14.88;;;10.00;;
46653;SDS011;38960;51.074;17.004;2023-09-07T04:08:44;13.15;;;10.15;;
46653;SDS011;38960;51.074;17.004;2023-09-07T04:11:10;13.35;;;9.75;;
46653;SDS011;38960;51.074;17.004;2023-09-07T04:13:36;12.27;;;8.90;;
46653;SDS011;38960;51.074;17.004;2023-09-07T04:16:01;18.58;;;10.00;;
46653;SDS011;38960;51.074;17.004;2023-09-07T04:18:27;14.32;;;10.02;;
46653;SDS011;38960;51.074;17.004;2023-09-07T04:20:53;13.70;;;11.57;;
46653;SDS011;38960;51.074;17.004;2023-09-07T04:23:21;15.45;;;11.98;;
46653;SDS011;38960;51.074;17.004;2023-09-07T04:25:46;22.95;;;20.65;;
46653;SDS011;38960;51.074;17.004;2023-09-07T04:28:13;34.20;;;26.98;;
46653;SDS011;38960;51.074;17.004;2023-09-07T04:30:39;12.27;;;6.72;;
46653;SDS011;38960;51.074;17.004;2023-09-07T04:33:06;14.95;;;7.20;;
46653;SDS011;38960;51.074;17.004;2023-09-07T04:35:32;14.90;;;6.93;;
46653;SDS011;38960;51.074;17.004;2023-09-07T04:37:58;13.35;;;7.20;;
46653;SDS011;38960;51.074;17.004;2023-09-07T04:40:24;9.98;;;7.03;;
46653;SDS011;38960;51.074;17.004;2023-09-07T04:42:51;13.00;;;7.63;;
46653;SDS011;38960;51.074;17.004;2023-09-07T04:45:17;15.85;;;6.80;;
46653;SDS011;38960;51.074;17.004;2023-09-07T04:47:43;21.70;;;10.48;;
46653;SDS011;38960;51.074;17.004;2023-09-07T04:50:10;15.20;;;12.63;;
46653;SDS011;38960;51.074;17.004;2023-09-07T04:52:35;15.02;;;7.80;;
46653;SDS011;38960;51.074;17.004;2023-09-07T04:55:01;16.13;;;13.90;;
46653;SDS011;38960;51.074;17.004;2023-09-07T04:57:27;15.13;;;13.63;;
46653;SDS011;38960;51.074;17.004;2023-09-07T04:59:52;16.10;;;14.50;;
46653;SDS011;38960;51.074;17.004;2023-09-07T05:02:18;15.70;;;12.05;;
46653;SDS011;38960;51.074;17.004;2023-09-07T05:04:44;19.88;;;12.15;;
46653;SDS011;38960;51.074;17.004;2023-09-07T05:07:10;22.27;;;12.93;;
46653;SDS011;38960;51.074;17.004;2023-09-07T05:09:35;15.38;;;11.80;;
46653;SDS011;38960;51.074;17.004;2023-09-07T05:12:01;20.80;;;15.55;;
46653;SDS011;38960;51.074;17.004;2023-09-07T05:14:27;23.13;;;15.77;;
46653;SDS011;38960;51.074;17.004;2023-09-07T05:16:55;20.13;;;14.77;;
46653;SDS011;38960;51.074;17.004;2023-09-07T05:19:21;15.90;;;13.13;;
46653;SDS011;38960;51.074;17.004;2023-09-07T05:21:48;11.43;;;10.30;;
46653;SDS011;38960;51.074;17.004;2023-09-07T05:24:13;19.85;;;11.15;;
46653;SDS011;38960;51.074;17.004;2023-09-07T05:26:43;12.00;;;9.18;;
46653;SDS011;38960;51.074;17.004;2023-09-07T05:29:10;14.57;;;8.38;;
46653;SDS011;38960;51.074;17.004;2023-09-07T05:31:37;15.02;;;9.10;;
46653;SDS011;38960;51.074;17.004;2023-09-07T05:34:03;26.60;;;10.00;;
46653;SDS011;38960;51.074;17.004;2023-09-07T05:36:29;12.95;;;7.05;;
46653;SDS011;38960;51.074;17.004;2023-09-07T05:38:54;14.95;;;7.43;;
46653;SDS011;38960;51.074;17.004;2023-09-07T05:41:20;13.05;;;8.18;;
46653;SDS011;38960;51.074;17.004;2023-09-07T05:43:46;14.45;;;7.50;;
46653;SDS011;38960;51.074;17.004;2023-09-07T05:46:12;16.42;;;7.10;;
46653;SDS011;38960;51.074;17.004;2023-09-07T05:48:37;13.02;;;7.72;;
46653;SDS011;38960;51.074;17.004;2023-09-07T05:51:03;14.00;;;7.85;;
46653;SDS011;38960;51.074;17.004;2023-09-07T05:53:29;13.00;;;7.40;;
46653;SDS011;38960;51.074;17.004;2023-09-07T05:55:54;13.13;;;8.60;;
46653;SDS011;38960;51.074;17.004;2023-09-07T05:58:20;13.30;;;8.07;;
46653;SDS011;38960;51.074;17.004;2023-09-07T06:00:45;12.07;;;8.20;;
46653;SDS011;38960;51.074;17.004;2023-09-07T06:03:11;12.68;;;8.40;;
46653;SDS011;38960;51.074;17.004;2023-09-07T06:05:37;14.75;;;7.90;;
46653;SDS011;38960;51.074;17.004;2023-09-07T06:08:06;13.20;;;8.32;;
46653;SDS011;38960;51.074;17.004;2023-09-07T06:10:32;18.02;;;8.65;;
46653;SDS011;38960;51.074;17.004;2023-09-07T06:12:58;15.35;;;7.90;;
46653;SDS011;38960;51.074;17.004;2023-09-07T06:15:25;14.15;;;7.45;;
46653;SDS011;38960;51.074;17.004;2023-09-07T06:17:51;12.32;;;7.80;;
46653;SDS011;38960;51.074;17.004;2023-09-07T06:20:16;14.50;;;7.47;;
46653;SDS011;38960;51.074;17.004;2023-09-07T06:22:44;13.15;;;7.72;;
46653;SDS011;38960;51.074;17.004;2023-09-07T06:25:10;16.35;;;7.97;;
46653;SDS011;38960;51.074;17.004;2023-09-07T06:27:36;18.88;;;9.18;;
46653;SDS011;38960;51.074;17.004;2023-09-07T06:30:01;18.10;;;9.05;;
46653;SDS011;38960;51.074;17.004;2023-09-07T06:32:29;10.45;;;7.50;;
46653;SDS011;38960;51.074;17.004;2023-09-07T06:34:54;13.32;;;8.25;;
46653;SDS011;38960;51.074;17.004;2023-09-07T06:37:20;18.58;;;11.20;;
46653;SDS011;38960;51.074;17.004;2023-09-07T06:39:46;12.70;;;9.35;;
46653;SDS011;38960;51.074;17.004;2023-09-07T06:42:11;18.15;;;9.63;;
46653;SDS011;38960;51.074;17.004;2023-09-07T06:44:44;12.07;;;7.70;;
46653;SDS011;38960;51.074;17.004;2023-09-07T06:47:11;20.25;;;8.63;;
46653;SDS011;38960;51.074;17.004;2023-09-07T06:49:40;12.93;;;9.07;;
46653;SDS011;38960;51.074;17.004;2023-09-07T06:52:06;18.60;;;9.48;;
46653;SDS011;38960;51.074;17.004;2023-09-07T06:54:33;18.10;;;11.43;;
46653;SDS011;38960;51.074;17.004;2023-09-07T06:56:59;18.00;;;10.93;;
46653;SDS011;38960;51.074;17.004;2023-09-07T06:59:25;13.70;;;8.65;;
46653;SDS011;38960;51.074;17.004;2023-09-07T07:01:50;15.25;;;9.65;;
46653;SDS011;38960;51.074;17.004;2023-09-07T07:04:16;14.23;;;9.18;;
46653;SDS011;38960;51.074;17.004;2023-09-07T07:06:41;20.08;;;9.10;;
46653;SDS011;38960;51.074;17.004;2023-09-07T07:09:07;14.73;;;8.35;;
46653;SDS011;38960;51.074;17.004;2023-09-07T07:11:35;15.10;;;10.48;;
46653;SDS011;38960;51.074;17.004;2023-09-07T07:14:01;19.48;;;10.02;;
46653;SDS011;38960;51.074;17.004;2023-09-07T07:16:27;11.93;;;9.30;;
46653;SDS011;38960;51.074;17.004;2023-09-07T07:18:52;16.23;;;10.82;;
46653;SDS011;38960;51.074;17.004;2023-09-07T07:21:18;13.85;;;9.88;;
46653;SDS011;38960;51.074;17.004;2023-09-07T07:23:43;13.30;;;9.77;;
46653;SDS011;38960;51.074;17.004;2023-09-07T07:26:09;15.35;;;9.18;;
46653;SDS011;38960;51.074;17.004;2023-09-07T07:28:34;19.23;;;11.50;;
46653;SDS011;38960;51.074;17.004;2023-09-07T07:31:06;15.45;;;10.70;;
46653;SDS011;38960;51.074;17.004;2023-09-07T07:33:36;13.52;;;8.00;;
46653;SDS011;38960;51.074;17.004;2023-09-07T07:36:03;14.40;;;7.75;;
46653;SDS011;38960;51.074;17.004;2023-09-07T07:38:29;13.38;;;7.80;;
46653;SDS011;38960;51.074;17.004;2023-09-07T07:40:56;11.07;;;7.97;;
46653;SDS011;38960;51.074;17.004;2023-09-07T07:43:21;16.15;;;7.80;;
46653;SDS011;38960;51.074;17.004;2023-09-07T07:45:47;13.35;;;7.90;;
46653;SDS011;38960;51.074;17.004;2023-09-07T07:48:13;11.68;;;8.13;;
46653;SDS011;38960;51.074;17.004;2023-09-07T07:50:40;30.33;;;27.80;;
46653;SDS011;38960;51.074;17.004;2023-09-07T07:53:08;12.68;;;6.90;;
46653;SDS011;38960;51.074;17.004;2023-09-07T07:55:35;12.50;;;7.72;;
46653;SDS011;38960;51.074;17.004;2023-09-07T07:58:05;11.23;;;7.88;;
46653;SDS011;38960;51.074;17.004;2023-09-07T08:03:02;11.13;;;7.20;;
46653;SDS011;38960;51.074;17.004;2023-09-07T08:05:29;8.80;;;7.13;;
46653;SDS011;38960;51.074;17.004;2023-09-07T08:07:56;10.10;;;6.93;;
46653;SDS011;38960;51.074;17.004;2023-09-07T08:10:22;8.38;;;6.68;;
46653;SDS011;38960;51.074;17.004;2023-09-07T08:12:47;10.25;;;6.90;;
46653;SDS011;38960;51.074;17.004;2023-09-07T08:15:13;8.32;;;6.57;;
46653;SDS011;38960;51.074;17.004;2023-09-07T08:17:40;10.63;;;7.45;;
46653;SDS011;38960;51.074;17.004;2023-09-07T08:20:05;11.45;;;7.35;;
46653;SDS011;38960;51.074;17.004;2023-09-07T08:22:33;9.85;;;7.53;;
46653;SDS011;38960;51.074;17.004;2023-09-07T08:25:01;9.85;;;6.70;;
46653;SDS011;38960;51.074;17.004;2023-09-07T08:27:27;10.38;;;6.93;;
46653;SDS011;38960;51.074;17.004;2023-09-07T08:29:54;9.77;;;7.35;;
46653;SDS011;38960;51.074;17.004;2023-09-07T08:32:20;9.98;;;7.00;;
46653;SDS011;38960;51.074;17.004;2023-09-07T08:34:46;11.15;;;7.07;;
46653;SDS011;38960;51.074;17.004;2023-09-07T08:37:11;12.15;;;7.50;;
46653;SDS011;38960;51.074;17.004;2023-09-07T08:39:37;13.13;;;6.90;;
46653;SDS011;38960;51.074;17.004;2023-09-07T08:42:04;8.37;;;6.67;;
46653;SDS011;38960;51.074;17.004;2023-09-07T08:44:30;25.13;;;23.15;;
46653;SDS011;38960;51.074;17.004;2023-09-07T08:46:59;19.40;;;17.67;;
46653;SDS011;38960;51.074;17.004;2023-09-07T08:49:25;9.30;;;6.50;;
46653;SDS011;38960;51.074;17.004;2023-09-07T08:51:51;7.18;;;5.57;;
46653;SDS011;38960;51.074;17.004;2023-09-07T08:54:17;10.70;;;5.97;;
46653;SDS011;38960;51.074;17.004;2023-09-07T08:56:43;8.95;;;5.78;;
46653;SDS011;38960;51.074;17.004;2023-09-07T08:59:10;7.93;;;5.83;;
46653;SDS011;38960;51.074;17.004;2023-09-07T09:01:35;10.57;;;5.85;;
46653;SDS011;38960;51.074;17.004;2023-09-07T09:04:02;13.13;;;7.07;;
46653;SDS011;38960;51.074;17.004;2023-09-07T09:06:28;8.32;;;5.57;;
46653;SDS011;38960;51.074;17.004;2023-09-07T09:08:54;9.70;;;5.85;;
46653;SDS011;38960;51.074;17.004;2023-09-07T09:11:21;7.30;;;5.65;;
46653;SDS011;38960;51.074;17.004;2023-09-07T09:13:47;6.82;;;5.38;;
46653;SDS011;38960;51.074;17.004;2023-09-07T09:16:13;7.22;;;5.50;;
46653;SDS011;38960;51.074;17.004;2023-09-07T09:21:14;6.65;;;4.72;;
46653;SDS011;38960;51.074;17.004;2023-09-07T09:23:41;7.30;;;4.75;;
46653;SDS011;38960;51.074;17.004;2023-09-07T09:26:08;6.15;;;5.40;;
46653;SDS011;38960;51.074;17.004;2023-09-07T09:28:34;5.72;;;5.03;;
46653;SDS011;38960;51.074;17.004;2023-09-07T09:31:00;6.22;;;5.13;;
46653;SDS011;38960;51.074;17.004;2023-09-07T09:33:26;6.65;;;4.97;;
46653;SDS011;38960;51.074;17.004;2023-09-07T09:35:55;5.00;;;4.32;;
46653;SDS011;38960;51.074;17.004;2023-09-07T09:38:21;4.70;;;4.30;;
46653;SDS011;38960;51.074;17.004;2023-09-07T09:40:47;9.95;;;4.43;;
46653;SDS011;38960;51.074;17.004;2023-09-07T09:43:13;6.55;;;4.50;;
46653;SDS011;38960;51.074;17.004;2023-09-07T09:45:38;6.15;;;4.28;;
46653;SDS011;38960;51.074;17.004;2023-09-07T09:48:07;10.45;;;4.70;;
46653;SDS011;38960;51.074;17.004;2023-09-07T09:50:34;5.18;;;4.40;;
46653;SDS011;38960;51.074;17.004;2023-09-07T09:53:04;5.72;;;4.03;;
46653;SDS011;38960;51.074;17.004;2023-09-07T09:55:31;4.80;;;4.30;;
46653;SDS011;38960;51.074;17.004;2023-09-07T09:57:57;6.38;;;4.18;;
46653;SDS011;38960;51.074;17.004;2023-09-07T10:00:23;5.93;;;4.43;;
46653;SDS011;38960;51.074;17.004;2023-09-07T10:05:20;12.77;;;5.05;;
46653;SDS011;38960;51.074;17.004;2023-09-07T10:07:49;4.75;;;3.85;;
46653;SDS011;38960;51.074;17.004;2023-09-07T10:10:16;9.00;;;4.57;;
46653;SDS011;38960;51.074;17.004;2023-09-07T10:12:44;9.77;;;4.82;;
46653;SDS011;38960;51.074;17.004;2023-09-07T10:15:23;21.88;;;7.55;;
46653;SDS011;38960;51.074;17.004;2023-09-07T10:17:49;12.52;;;4.57;;
46653;SDS011;38960;51.074;17.004;2023-09-07T10:20:18;7.22;;;5.63;;
46653;SDS011;38960;51.074;17.004;2023-09-07T10:22:48;21.17;;;19.42;;
46653;SDS011;38960;51.074;17.004;2023-09-07T10:25:20;7.95;;;5.30;;
46653;SDS011;38960;51.074;17.004;2023-09-07T10:27:47;12.50;;;5.35;;
46653;SDS011;38960;51.074;17.004;2023-09-07T10:30:12;6.97;;;5.65;;
46653;SDS011;38960;51.074;17.004;2023-09-07T10:32:39;7.35;;;4.43;;
46653;SDS011;38960;51.074;17.004;2023-09-07T10:35:16;7.65;;;6.70;;
46653;SDS011;38960;51.074;17.004;2023-09-07T10:37:46;10.40;;;9.68;;
46653;SDS011;38960;51.074;17.004;2023-09-07T10:40:12;8.98;;;8.18;;
46653;SDS011;38960;51.074;17.004;2023-09-07T10:42:39;8.75;;;7.82;;
46653;SDS011;38960;51.074;17.004;2023-09-07T10:45:08;7.50;;;6.22;;
46653;SDS011;38960;51.074;17.004;2023-09-07T10:47:44;9.63;;;5.80;;
46653;SDS011;38960;51.074;17.004;2023-09-07T10:50:14;7.85;;;6.65;;
46653;SDS011;38960;51.074;17.004;2023-09-07T10:52:40;13.43;;;12.40;;
46653;SDS011;38960;51.074;17.004;2023-09-07T10:55:07;13.98;;;9.27;;
46653;SDS011;38960;51.074;17.004;2023-09-07T10:57:45;11.90;;;10.70;;
46653;SDS011;38960;51.074;17.004;2023-09-07T11:00:11;7.75;;;4.47;;
46653;SDS011;38960;51.074;17.004;2023-09-07T11:02:38;6.55;;;4.22;;
46653;SDS011;38960;51.074;17.004;2023-09-07T11:05:07;6.78;;;4.20;;
46653;SDS011;38960;51.074;17.004;2023-09-07T11:07:33;5.20;;;4.10;;
46653;SDS011;38960;51.074;17.004;2023-09-07T11:09:59;5.72;;;4.32;;
46653;SDS011;38960;51.074;17.004;2023-09-07T11:12:25;6.13;;;4.50;;
46653;SDS011;38960;51.074;17.004;2023-09-07T11:14:51;7.07;;;4.85;;
46653;SDS011;38960;51.074;17.004;2023-09-07T11:17:25;5.80;;;4.28;;
46653;SDS011;38960;51.074;17.004;2023-09-07T11:19:53;6.10;;;4.00;;
46653;SDS011;38960;51.074;17.004;2023-09-07T11:22:19;6.75;;;4.10;;
46653;SDS011;38960;51.074;17.004;2023-09-07T11:24:45;6.43;;;5.60;;
46653;SDS011;38960;51.074;17.004;2023-09-07T11:27:11;11.35;;;8.70;;
46653;SDS011;38960;51.074;17.004;2023-09-07T11:29:36;11.70;;;10.77;;
46653;SDS011;38960;51.074;17.004;2023-09-07T11:32:07;11.48;;;10.57;;
46653;SDS011;38960;51.074;17.004;2023-09-07T11:34:33;9.52;;;8.73;;
46653;SDS011;38960;51.074;17.004;2023-09-07T11:37:01;10.45;;;9.57;;
46653;SDS011;38960;51.074;17.004;2023-09-07T11:39:28;11.65;;;9.80;;
46653;SDS011;38960;51.074;17.004;2023-09-07T11:41:53;10.88;;;9.73;;
46653;SDS011;38960;51.074;17.004;2023-09-07T11:44:19;12.38;;;11.32;;
46653;SDS011;38960;51.074;17.004;2023-09-07T11:46:45;10.88;;;9.63;;
46653;SDS011;38960;51.074;17.004;2023-09-07T11:49:11;13.20;;;12.20;;
46653;SDS011;38960;51.074;17.004;2023-09-07T11:51:36;10.68;;;9.77;;
46653;SDS011;38960;51.074;17.004;2023-09-07T11:54:02;10.95;;;9.82;;
46653;SDS011;38960;51.074;17.004;2023-09-07T11:56:29;13.57;;;12.50;;
46653;SDS011;38960;51.074;17.004;2023-09-07T11:58:55;14.02;;;13.02;;
46653;SDS011;38960;51.074;17.004;2023-09-07T12:01:21;13.35;;;12.25;;
46653;SDS011;38960;51.074;17.004;2023-09-07T12:03:46;11.38;;;10.27;;
46653;SDS011;38960;51.074;17.004;2023-09-07T12:06:12;12.57;;;11.35;;
46653;SDS011;38960;51.074;17.004;2023-09-07T12:08:41;13.38;;;12.27;;
46653;SDS011;38960;51.074;17.004;2023-09-07T12:11:07;12.45;;;11.50;;
46653;SDS011;38960;51.074;17.004;2023-09-07T12:13:33;12.40;;;11.50;;
46653;SDS011;38960;51.074;17.004;2023-09-07T12:15:58;12.45;;;11.52;;
46653;SDS011;38960;51.074;17.004;2023-09-07T12:18:26;12.32;;;11.32;;
46653;SDS011;38960;51.074;17.004;2023-09-07T12:20:51;9.23;;;8.40;;
46653;SDS011;38960;51.074;17.004;2023-09-07T12:23:17;8.02;;;7.32;;
46653;SDS011;38960;51.074;17.004;2023-09-07T12:25:42;8.57;;;7.45;;
46653;SDS011;38960;51.074;17.004;2023-09-07T12:28:08;12.35;;;8.32;;
46653;SDS011;38960;51.074;17.004;2023-09-07T12:30:34;10.35;;;9.07;;
46653;SDS011;38960;51.074;17.004;2023-09-07T12:32:59;10.50;;;9.70;;
46653;SDS011;38960;51.074;17.004;2023-09-07T12:35:25;11.10;;;10.10;;
46653;SDS011;38960;51.074;17.004;2023-09-07T12:37:50;10.05;;;9.25;;
46653;SDS011;38960;51.074;17.004;2023-09-07T12:40:17;10.95;;;9.20;;
46653;SDS011;38960;51.074;17.004;2023-09-07T12:42:43;9.98;;;9.23;;
46653;SDS011;38960;51.074;17.004;2023-09-07T12:45:09;10.98;;;9.93;;
46653;SDS011;38960;51.074;17.004;2023-09-07T12:47:36;10.10;;;9.20;;
46653;SDS011;38960;51.074;17.004;2023-09-07T12:50:02;11.93;;;10.82;;
46653;SDS011;38960;51.074;17.004;2023-09-07T12:52:28;10.65;;;9.85;;
46653;SDS011;38960;51.074;17.004;2023-09-07T12:54:53;8.30;;;7.50;;
46653;SDS011;38960;51.074;17.004;2023-09-07T12:57:19;10.45;;;9.60;;
46653;SDS011;38960;51.074;17.004;2023-09-07T12:59:44;10.93;;;9.32;;
46653;SDS011;38960;51.074;17.004;2023-09-07T13:02:10;11.00;;;9.88;;
46653;SDS011;38960;51.074;17.004;2023-09-07T13:04:35;11.40;;;9.45;;
46653;SDS011;38960;51.074;17.004;2023-09-07T13:07:01;10.43;;;8.73;;
46653;SDS011;38960;51.074;17.004;2023-09-07T13:09:27;9.00;;;7.85;;
46653;SDS011;38960;51.074;17.004;2023-09-07T13:11:53;9.07;;;8.35;;
46653;SDS011;38960;51.074;17.004;2023-09-07T13:14:18;9.00;;;8.10;;
46653;SDS011;38960;51.074;17.004;2023-09-07T13:16:44;8.32;;;7.60;;
46653;SDS011;38960;51.074;17.004;2023-09-07T13:19:09;9.15;;;8.30;;
46653;SDS011;38960;51.074;17.004;2023-09-07T13:21:36;11.50;;;10.40;;
46653;SDS011;38960;51.074;17.004;2023-09-07T13:24:02;8.02;;;7.22;;
46653;SDS011;38960;51.074;17.004;2023-09-07T13:26:28;8.10;;;7.28;;
46653;SDS011;38960;51.074;17.004;2023-09-07T13:28:54;7.82;;;7.18;;
46653;SDS011;38960;51.074;17.004;2023-09-07T13:31:19;10.23;;;7.28;;
46653;SDS011;38960;51.074;17.004;2023-09-07T13:33:45;10.35;;;9.20;;
46653;SDS011;38960;51.074;17.004;2023-09-07T13:36:10;9.40;;;8.50;;
46653;SDS011;38960;51.074;17.004;2023-09-07T13:38:36;11.02;;;9.90;;
46653;SDS011;38960;51.074;17.004;2023-09-07T13:41:01;11.57;;;10.48;;
46653;SDS011;38960;51.074;17.004;2023-09-07T13:43:27;12.70;;;11.32;;
46653;SDS011;38960;51.074;17.004;2023-09-07T13:45:52;10.80;;;10.00;;
46653;SDS011;38960;51.074;17.004;2023-09-07T13:48:18;11.05;;;9.95;;
46653;SDS011;38960;51.074;17.004;2023-09-07T13:50:43;12.18;;;9.65;;
46653;SDS011;38960;51.074;17.004;2023-09-07T13:53:09;9.60;;;8.90;;
46653;SDS011;38960;51.074;17.004;2023-09-07T13:55:35;11.68;;;10.48;;
46653;SDS011;38960;51.074;17.004;2023-09-07T13:58:00;9.45;;;8.68;;
46653;SDS011;38960;51.074;17.004;2023-09-07T14:00:26;10.88;;;9.98;;
46653;SDS011;38960;51.074;17.004;2023-09-07T14:02:52;11.57;;;10.65;;
46653;SDS011;38960;51.074;17.004;2023-09-07T14:05:18;12.05;;;10.85;;
46653;SDS011;38960;51.074;17.004;2023-09-07T14:07:43;11.02;;;10.13;;
46653;SDS011;38960;51.074;17.004;2023-09-07T14:10:09;11.50;;;10.70;;
46653;SDS011;38960;51.074;17.004;2023-09-07T14:12:34;11.73;;;10.57;;
46653;SDS011;38960;51.074;17.004;2023-09-07T14:15:00;11.68;;;10.73;;
46653;SDS011;38960;51.074;17.004;2023-09-07T14:17:26;11.07;;;10.23;;
46653;SDS011;38960;51.074;17.004;2023-09-07T14:19:51;10.93;;;9.88;;
46653;SDS011;38960;51.074;17.004;2023-09-07T14:22:17;9.32;;;8.52;;